Warnow Moon — A8VX3 — position and weather

sailwx.info

Track history (hours):
 
Tides and Currents Weather Stations Pressure Air Temp Water Temp Dewpoint Dewpoint Depression Visibility Wind Speed Wind Dir Waves Ship Positions

Warnow Moon

Last reported at 2017-Nov-16 10:20 UTC. Time now 2017-Dec-16 07:19 UTC.
Position N 36°20' E 014°35'.
Warning: this ship's position is 29 days out of date.

Length 180 m; draft 10.6 m.

Type: Cargo ship. MMSI: 636016909.

Date/timePositionNaut miles runAvg speedWind from/ knotsBaromVisibWave heightAir tempDewpointWater temp
2017-Nov-16 10:20N 36°20' E 014°35'513.1
2017-Nov-16 10:00N 36°21' E 014°30'713.1
2017-Nov-16 09:30N 36°22' E 014°22'612.9
2017-Nov-16 09:00N 36°24' E 014°15'612.9
2017-Nov-16 08:30N 36°27' E 014°07'812.9
2017-Nov-16 07:54N 36°30' E 013°58'  
2017-Nov-12 13:59N 36°00' W 005°13'816.7
2017-Nov-12 13:31N 35°59' W 005°22'13413.3
2017-Nov-12 03:26N 36°04' W 008°08'512.4
2017-Nov-12 03:01N 36°05' W 008°14'3912.5
2017-Nov-11 23:56N 36°14' W 009°01'612.7
2017-Nov-11 23:30N 36°15' W 009°07'712.5
2017-Nov-11 22:55N 36°17' W 009°16'2312.3
2017-Nov-11 21:01N 36°22' W 009°44'012.0
2017-Nov-11 21:00N 36°22' W 009°45'612.1
2017-Nov-11 20:30N 36°24' W 009°52'3412.2
2017-Nov-11 17:41N 36°36' W 010°32'  
Track history (hours):
 
Tides and Currents Weather Stations Pressure Air Temp Water Temp Dewpoint Dewpoint Depression Visibility Wind Speed Wind Dir Waves Ship Positions

Warnow Moon

Last reported at 2017-Nov-16 10:20 UTC. Time now 2017-Dec-16 07:19 UTC.
Position N 36°20' E 014°35'.
Warning: this ship's position is 29 days out of date.

Length 180 m; draft 10.6 m.

Type: Cargo ship. MMSI: 636016909.

Date/timePositionNaut miles runAvg speedWind from/ knotsBaromVisibWave heightAir tempDewpointWater temp
2017-Nov-16 10:20N 36°20' E 014°35'513.1
2017-Nov-16 10:00N 36°21' E 014°30'713.1
2017-Nov-16 09:30N 36°22' E 014°22'612.9
2017-Nov-16 09:00N 36°24' E 014°15'612.9
2017-Nov-16 08:30N 36°27' E 014°07'812.9
2017-Nov-16 07:54N 36°30' E 013°58'  
2017-Nov-12 13:59N 36°00' W 005°13'816.7
2017-Nov-12 13:31N 35°59' W 005°22'13413.3
2017-Nov-12 03:26N 36°04' W 008°08'512.4
2017-Nov-12 03:01N 36°05' W 008°14'3912.5
2017-Nov-11 23:56N 36°14' W 009°01'612.7
2017-Nov-11 23:30N 36°15' W 009°07'712.5
2017-Nov-11 22:55N 36°17' W 009°16'2312.3
2017-Nov-11 21:01N 36°22' W 009°44'012.0
2017-Nov-11 21:00N 36°22' W 009°45'612.1
2017-Nov-11 20:30N 36°24' W 009°52'3412.2
2017-Nov-11 17:41N 36°36' W 010°32'  

Dump ship's entire track history